createdAt,value
2024-03-06T00:00:21.024Z,8.07
2024-03-06T00:02:48.389Z,7.05
2024-03-06T00:05:15.772Z,8.00
2024-03-06T00:07:43.016Z,7.82
2024-03-06T00:10:10.502Z,7.78
2024-03-06T00:12:37.592Z,7.63
2024-03-06T00:15:05.187Z,7.60
2024-03-06T00:17:32.563Z,7.55
2024-03-06T00:19:59.788Z,7.13
2024-03-06T00:22:26.961Z,8.27
2024-03-06T00:24:54.124Z,7.85
2024-03-06T00:27:21.457Z,7.72
2024-03-06T00:29:48.831Z,7.82
2024-03-06T00:32:16.266Z,7.80
2024-03-06T00:34:43.702Z,7.70
2024-03-06T00:37:13.983Z,7.65
2024-03-06T00:39:44.445Z,7.10
2024-03-06T00:42:14.957Z,7.90
2024-03-06T00:44:42.566Z,7.63
2024-03-06T00:47:09.985Z,8.38
2024-03-06T00:49:42.934Z,8.18
2024-03-06T00:52:10.689Z,7.72
2024-03-06T00:54:37.757Z,7.75
2024-03-06T00:57:05.015Z,8.50
2024-03-06T00:59:32.050Z,8.05
2024-03-06T01:01:59.258Z,8.68
2024-03-06T01:04:26.411Z,7.95
2024-03-06T01:06:53.587Z,7.35
2024-03-06T01:09:20.718Z,7.75
2024-03-06T01:11:49.210Z,8.18
2024-03-06T01:14:17.820Z,7.78
2024-03-06T01:16:45.124Z,8.60
2024-03-06T01:19:12.250Z,8.18
2024-03-06T01:21:39.800Z,8.32
2024-03-06T01:24:06.934Z,7.57
2024-03-06T01:26:34.185Z,7.80
2024-03-06T01:29:01.672Z,7.80
2024-03-06T01:31:29.007Z,7.93
2024-03-06T01:33:56.105Z,8.20
2024-03-06T01:36:23.258Z,8.73
2024-03-06T01:38:50.403Z,8.57
2024-03-06T01:41:17.553Z,7.93
2024-03-06T01:43:45.448Z,7.65
2024-03-06T01:46:12.599Z,8.40
2024-03-06T01:48:40.601Z,8.43
2024-03-06T01:51:07.808Z,7.35
2024-03-06T01:53:36.328Z,8.13
2024-03-06T01:56:05.364Z,8.25
2024-03-06T01:58:35.378Z,8.48
2024-03-06T02:01:03.684Z,7.88
2024-03-06T02:03:32.942Z,8.13
2024-03-06T02:06:03.631Z,8.27
2024-03-06T02:08:30.816Z,8.35
2024-03-06T02:10:58.102Z,8.02
2024-03-06T02:13:25.379Z,8.02
2024-03-06T02:15:52.530Z,7.72
2024-03-06T02:18:19.614Z,8.30
2024-03-06T02:20:48.340Z,7.65
2024-03-06T02:23:16.026Z,8.68
2024-03-06T02:25:43.290Z,8.20
2024-03-06T02:28:10.467Z,8.00
2024-03-06T02:30:38.527Z,8.05
2024-03-06T02:33:08.045Z,8.50
2024-03-06T02:35:36.412Z,7.60
2024-03-06T02:38:08.872Z,7.72
2024-03-06T02:40:36.168Z,8.23
2024-03-06T02:43:03.791Z,7.68
2024-03-06T02:45:30.824Z,7.72
2024-03-06T02:47:57.947Z,8.07
2024-03-06T02:50:25.214Z,7.30
2024-03-06T02:52:54.636Z,8.43
2024-03-06T02:55:23.832Z,7.75
2024-03-06T02:57:50.995Z,8.77
2024-03-06T03:00:18.253Z,8.25
2024-03-06T03:02:45.304Z,7.63
2024-03-06T03:05:12.600Z,7.85
2024-03-06T03:07:39.941Z,7.90
2024-03-06T03:10:07.754Z,7.47
2024-03-06T03:12:35.218Z,8.23
2024-03-06T03:15:02.652Z,7.85
2024-03-06T03:17:29.789Z,8.20
2024-03-06T03:19:57.095Z,7.68
2024-03-06T03:22:24.451Z,7.80
2024-03-06T03:24:51.558Z,8.25
2024-03-06T03:27:19.247Z,8.55
2024-03-06T03:29:46.374Z,8.07
2024-03-06T03:32:13.555Z,8.35
2024-03-06T03:34:41.004Z,8.25
2024-03-06T03:37:08.142Z,8.32
2024-03-06T03:39:35.209Z,8.27
2024-03-06T03:42:02.512Z,8.23
2024-03-06T03:44:29.595Z,8.93
2024-03-06T03:46:56.702Z,8.93
2024-03-06T03:49:23.800Z,8.73
2024-03-06T03:51:50.961Z,8.10
2024-03-06T03:54:18.040Z,8.27
2024-03-06T03:56:45.225Z,7.43
2024-03-06T03:59:12.392Z,8.27
2024-03-06T04:01:39.556Z,7.93
2024-03-06T04:04:08.334Z,7.88
2024-03-06T04:06:35.588Z,8.48
2024-03-06T04:09:03.100Z,8.15
2024-03-06T04:11:31.083Z,8.10
2024-03-06T04:13:58.254Z,8.45
2024-03-06T04:16:25.395Z,7.72
2024-03-06T04:18:53.047Z,9.38
2024-03-06T04:21:20.200Z,8.82
2024-03-06T04:23:47.462Z,7.47
2024-03-06T04:26:14.864Z,8.15
2024-03-06T04:28:42.030Z,7.93
2024-03-06T04:31:09.290Z,8.20
2024-03-06T04:33:36.662Z,8.23
2024-03-06T04:36:07.012Z,7.85
2024-03-06T04:38:34.199Z,7.68
2024-03-06T04:41:01.319Z,8.77
2024-03-06T04:43:28.667Z,7.80
2024-03-06T04:45:55.794Z,8.10
2024-03-06T04:48:22.991Z,8.15
2024-03-06T04:50:50.495Z,8.05
2024-03-06T04:53:17.738Z,8.10
2024-03-06T04:55:45.017Z,9.13
2024-03-06T04:58:12.198Z,8.20
2024-03-06T05:00:39.436Z,8.80
2024-03-06T05:59:34.570Z,8.00
2024-03-06T06:02:01.858Z,8.73
2024-03-06T06:04:29.109Z,8.85
2024-03-06T06:06:56.183Z,9.70
2024-03-06T06:09:23.318Z,8.63
2024-03-06T06:11:51.968Z,8.90
2024-03-06T06:14:19.169Z,8.23
2024-03-06T06:16:46.282Z,8.65
2024-03-06T06:19:13.404Z,9.15
2024-03-06T06:21:40.490Z,8.43
2024-03-06T06:24:08.351Z,8.90
2024-03-06T06:26:35.456Z,8.63
2024-03-06T06:29:02.703Z,9.05
2024-03-06T06:31:30.014Z,8.57
2024-03-06T06:33:57.166Z,9.32
2024-03-06T06:36:24.414Z,8.73
2024-03-06T06:38:51.589Z,8.90
2024-03-06T06:41:19.104Z,8.27
2024-03-06T06:43:46.661Z,8.95
2024-03-06T06:46:13.972Z,9.25
2024-03-06T06:48:41.148Z,8.77
2024-03-06T06:51:08.688Z,9.15
2024-03-06T06:53:35.958Z,8.63
2024-03-06T06:56:03.373Z,8.95
2024-03-06T06:58:30.557Z,8.90
2024-03-06T07:00:57.718Z,8.57
2024-03-06T07:03:30.809Z,8.57
2024-03-06T07:05:58.759Z,8.17
2024-03-06T07:08:25.938Z,9.15
2024-03-06T07:10:56.319Z,9.23
2024-03-06T07:13:23.597Z,8.65
2024-03-06T07:15:50.694Z,8.80
2024-03-06T07:18:17.895Z,8.77
2024-03-06T07:20:45.177Z,8.75
2024-03-06T07:23:12.605Z,9.40
2024-03-06T07:25:39.693Z,8.52
2024-03-06T07:28:06.977Z,8.73
2024-03-06T07:30:34.092Z,9.10
2024-03-06T07:33:02.049Z,9.13
2024-03-06T07:35:29.260Z,9.05
2024-03-06T07:37:56.431Z,9.15
2024-03-06T07:40:23.907Z,8.82
2024-03-06T07:42:51.022Z,8.80
2024-03-06T07:45:18.113Z,8.93
2024-03-06T07:47:46.559Z,8.98
2024-03-06T07:50:14.030Z,9.48
2024-03-06T07:52:41.169Z,10.25
2024-03-06T07:55:08.589Z,9.52
2024-03-06T07:57:35.628Z,9.07
2024-03-06T08:00:09.699Z,9.88
2024-03-06T08:05:04.112Z,8.98
2024-03-06T08:07:31.592Z,9.77
2024-03-06T08:09:58.577Z,10.00
2024-03-06T08:12:25.666Z,9.70
2024-03-06T08:14:53.012Z,10.10
2024-03-06T08:17:20.215Z,8.98
2024-03-06T08:19:47.483Z,10.02
2024-03-06T08:22:15.217Z,9.75
2024-03-06T08:24:42.368Z,9.23
2024-03-06T08:27:09.482Z,10.18
2024-03-06T08:29:36.580Z,11.50
2024-03-06T08:32:05.160Z,11.40
2024-03-06T08:34:33.232Z,10.13
2024-03-06T08:37:00.274Z,11.25
2024-03-06T08:39:27.297Z,9.50
2024-03-06T08:41:54.375Z,9.20
2024-03-06T08:44:21.721Z,9.07
2024-03-06T08:46:48.727Z,9.73
2024-03-06T08:49:15.827Z,11.05
2024-03-06T08:51:42.845Z,13.30
2024-03-06T08:54:14.631Z,10.45
2024-03-06T08:56:45.146Z,9.60
2024-03-06T08:59:12.574Z,10.40
2024-03-06T09:01:39.692Z,10.10
2024-03-06T09:04:08.631Z,16.23
2024-03-06T09:06:35.653Z,10.43
2024-03-06T09:09:03.556Z,10.25
2024-03-06T09:11:30.671Z,10.23
2024-03-06T09:13:57.770Z,10.02
2024-03-06T09:16:25.671Z,10.88
2024-03-06T09:18:53.778Z,10.70
2024-03-06T09:21:22.396Z,10.02
2024-03-06T09:23:52.702Z,11.07
2024-03-06T09:26:19.871Z,10.52
2024-03-06T09:28:47.029Z,9.48
2024-03-06T09:31:14.808Z,9.90
2024-03-06T09:33:42.051Z,9.32
2024-03-06T09:36:14.473Z,9.38
2024-03-06T09:38:41.857Z,9.40
2024-03-06T09:41:09.942Z,8.90
2024-03-06T09:43:37.331Z,10.45
2024-03-06T09:46:05.367Z,10.52
2024-03-06T09:48:33.227Z,10.93
2024-03-06T09:51:05.680Z,9.65
2024-03-06T09:53:32.788Z,9.95
2024-03-06T09:56:01.601Z,11.63
2024-03-06T09:58:28.950Z,10.55
2024-03-06T10:00:57.774Z,10.70
2024-03-06T10:03:24.874Z,10.45
2024-03-06T10:05:52.044Z,10.65
2024-03-06T10:08:21.296Z,11.10
2024-03-06T10:10:51.825Z,9.88
2024-03-06T10:13:18.837Z,9.82
2024-03-06T10:16:10.110Z,10.63
2024-03-06T10:18:40.077Z,10.85
2024-03-06T10:21:07.284Z,10.07
2024-03-06T10:23:36.101Z,10.43
2024-03-06T10:26:03.324Z,10.35
2024-03-06T10:28:30.408Z,9.98
2024-03-06T10:31:07.176Z,10.70
2024-03-06T10:33:35.462Z,10.20
2024-03-06T10:36:05.237Z,10.90
2024-03-06T10:38:37.192Z,10.32
2024-03-06T10:41:07.828Z,11.18
2024-03-06T10:43:36.472Z,11.40
2024-03-06T10:46:07.820Z,10.63
2024-03-06T10:48:36.256Z,11.27
2024-03-06T10:51:04.961Z,10.73
2024-03-06T10:53:34.254Z,10.73
2024-03-06T10:56:03.252Z,11.13
2024-03-06T10:58:31.036Z,11.30
2024-03-06T11:00:59.485Z,11.45
2024-03-06T11:03:27.500Z,10.80
2024-03-06T11:05:54.626Z,11.60
2024-03-06T11:08:22.900Z,11.52
2024-03-06T11:10:50.338Z,12.35
2024-03-06T11:13:28.266Z,11.63
2024-03-06T11:15:58.856Z,11.40
2024-03-06T11:18:32.544Z,12.18
2024-03-06T11:21:02.846Z,11.80
2024-03-06T11:23:33.677Z,11.65
2024-03-06T11:26:08.066Z,12.52
2024-03-06T11:28:41.500Z,11.90
2024-03-06T11:31:20.197Z,12.55
2024-03-06T11:36:31.714Z,11.40
2024-03-06T11:39:01.554Z,11.45
2024-03-06T11:41:33.541Z,12.52
2024-03-06T11:44:02.101Z,12.20
2024-03-06T11:47:10.553Z,12.38
2024-03-06T11:49:39.480Z,12.20
2024-03-06T11:52:11.858Z,11.35
2024-03-06T11:54:40.081Z,12.05
2024-03-06T11:57:08.097Z,12.45
2024-03-06T11:59:41.195Z,12.27
2024-03-06T12:02:08.759Z,12.90
2024-03-06T12:04:40.058Z,12.82
2024-03-06T12:07:08.362Z,12.10
2024-03-06T12:09:41.106Z,12.35
2024-03-06T12:12:11.302Z,12.10
2024-03-06T12:14:41.302Z,12.48
2024-03-06T12:17:14.838Z,12.35
2024-03-06T12:19:43.927Z,12.53
2024-03-06T12:22:12.091Z,12.57
2024-03-06T12:24:39.188Z,12.65
2024-03-06T12:27:08.555Z,12.10
2024-03-06T12:29:39.378Z,12.23
2024-03-06T12:32:19.085Z,12.32
2024-03-06T12:34:57.371Z,11.43
2024-03-06T12:37:36.139Z,11.88
2024-03-06T12:40:06.104Z,11.60
2024-03-06T12:42:34.057Z,10.35
2024-03-06T12:45:01.347Z,10.65
2024-03-06T12:47:28.676Z,11.38
2024-03-06T12:49:55.858Z,10.88
2024-03-06T12:52:22.952Z,12.70
2024-03-06T12:54:50.915Z,10.77
2024-03-06T12:57:19.169Z,10.73
2024-03-06T12:59:46.488Z,10.75
2024-03-06T13:02:13.788Z,10.48
2024-03-06T13:04:40.851Z,10.57
2024-03-06T13:07:07.965Z,10.93
2024-03-06T13:09:35.174Z,10.60
2024-03-06T13:12:02.704Z,11.43
2024-03-06T13:14:29.817Z,11.65
2024-03-06T13:16:57.378Z,11.68
2024-03-06T13:19:24.528Z,11.15
2024-03-06T13:21:51.936Z,11.18
2024-03-06T13:24:19.062Z,12.82
2024-03-06T13:26:47.168Z,12.15
2024-03-06T13:29:15.016Z,15.77
2024-03-06T13:31:42.086Z,12.93
2024-03-06T13:34:09.221Z,12.40
2024-03-06T13:36:36.532Z,11.80
2024-03-06T13:39:03.652Z,12.02
2024-03-06T13:41:31.218Z,12.20
2024-03-06T13:43:58.493Z,11.73
2024-03-06T13:46:25.572Z,12.30
2024-03-06T13:48:52.718Z,13.63
2024-03-06T13:51:19.745Z,12.63
2024-03-06T13:53:47.372Z,12.20
2024-03-06T13:56:14.511Z,12.35
2024-03-06T13:58:42.302Z,12.68
2024-03-06T14:01:09.360Z,12.48
2024-03-06T14:03:38.931Z,12.38
2024-03-06T14:06:08.497Z,12.25
2024-03-06T14:08:35.624Z,11.07
2024-03-06T14:11:05.356Z,12.18
2024-03-06T14:13:32.492Z,12.20
2024-03-06T14:16:01.713Z,11.18
2024-03-06T14:18:30.059Z,11.98
2024-03-06T14:20:57.351Z,12.10
2024-03-06T14:23:24.572Z,12.30
2024-03-06T14:25:52.012Z,11.90
2024-03-06T14:28:19.065Z,12.27
2024-03-06T14:30:46.613Z,11.98
2024-03-06T14:33:13.863Z,12.18
2024-03-06T14:35:40.978Z,11.80
2024-03-06T14:38:08.095Z,12.30
2024-03-06T14:40:35.414Z,12.15
2024-03-06T14:43:03.328Z,12.15
2024-03-06T14:45:30.468Z,11.63
2024-03-06T14:47:57.639Z,12.15
2024-03-06T14:50:24.815Z,11.63
2024-03-06T14:52:51.943Z,11.75
2024-03-06T14:55:19.070Z,11.48
2024-03-06T14:57:46.173Z,11.75
2024-03-06T15:00:13.919Z,11.60
2024-03-06T15:02:41.485Z,11.85
2024-03-06T15:05:08.848Z,11.90
2024-03-06T15:07:35.955Z,12.35
2024-03-06T15:10:03.083Z,12.15
2024-03-06T15:12:30.164Z,11.60
2024-03-06T15:14:59.443Z,12.15
2024-03-06T15:17:29.568Z,11.70
2024-03-06T15:19:58.250Z,11.93
2024-03-06T15:22:25.876Z,12.25
2024-03-06T15:24:52.932Z,11.88
2024-03-06T15:27:20.005Z,12.30
2024-03-06T15:29:47.209Z,11.48
2024-03-06T15:32:14.453Z,11.52
2024-03-06T15:34:41.630Z,10.98
2024-03-06T15:37:08.657Z,11.65
2024-03-06T15:39:35.984Z,10.93
2024-03-06T15:42:03.145Z,10.93
2024-03-06T15:44:30.274Z,11.05
2024-03-06T15:47:06.603Z,10.63
2024-03-06T15:49:37.725Z,10.73
2024-03-06T15:52:05.200Z,11.10
2024-03-06T15:54:32.558Z,11.13
2024-03-06T15:56:59.760Z,11.00
2024-03-06T15:59:27.011Z,11.25
2024-03-06T16:01:54.247Z,11.88
2024-03-06T16:04:21.402Z,11.15
2024-03-06T16:06:48.772Z,10.73
2024-03-06T16:09:16.360Z,11.15
2024-03-06T16:11:43.912Z,11.38
2024-03-06T16:14:12.186Z,11.30
2024-03-06T16:16:43.379Z,11.13
2024-03-06T16:19:10.766Z,10.70
2024-03-06T16:21:41.187Z,11.10
2024-03-06T16:24:11.063Z,10.25
2024-03-06T16:26:38.777Z,11.32
2024-03-06T16:29:06.070Z,10.68
2024-03-06T16:31:33.304Z,10.85
2024-03-06T16:34:00.564Z,10.95
2024-03-06T16:36:27.722Z,13.43
2024-03-06T16:38:54.926Z,13.30
2024-03-06T16:41:22.158Z,12.73
2024-03-06T16:43:49.290Z,12.48
2024-03-06T16:46:18.480Z,12.30
2024-03-06T16:48:45.643Z,12.25
2024-03-06T16:51:19.334Z,12.65
2024-03-06T16:53:46.645Z,12.25
2024-03-06T16:56:14.148Z,11.73
2024-03-06T16:58:41.718Z,11.60
2024-03-06T17:01:08.832Z,11.40
2024-03-06T17:03:35.943Z,11.68
2024-03-06T17:06:03.114Z,11.20
2024-03-06T17:08:30.188Z,10.45
2024-03-06T17:10:57.287Z,11.13
2024-03-06T17:13:24.421Z,11.80
2024-03-06T17:15:52.363Z,11.95
2024-03-06T17:18:22.448Z,11.55
2024-03-06T17:20:49.732Z,11.18
2024-03-06T17:23:16.867Z,11.52
2024-03-06T17:25:45.268Z,10.82
2024-03-06T17:28:12.367Z,11.32
2024-03-06T17:30:39.429Z,11.13
2024-03-06T17:33:06.697Z,12.02
2024-03-06T17:35:33.942Z,11.48
2024-03-06T17:38:04.270Z,11.77
2024-03-06T17:40:31.744Z,12.55
2024-03-06T17:42:59.025Z,12.48
2024-03-06T17:45:26.285Z,11.57
2024-03-06T17:47:53.813Z,12.30
2024-03-06T17:50:21.568Z,12.25
2024-03-06T17:52:48.793Z,12.00
2024-03-06T17:55:18.279Z,12.20
2024-03-06T17:57:48.117Z,11.43
2024-03-06T18:00:18.199Z,12.13
2024-03-06T18:02:45.862Z,11.07
2024-03-06T18:05:14.366Z,11.70
2024-03-06T18:07:45.864Z,11.73
2024-03-06T18:10:14.354Z,12.20
2024-03-06T18:12:41.513Z,11.82
2024-03-06T18:15:09.246Z,12.50
2024-03-06T18:17:38.660Z,12.52
2024-03-06T18:20:09.322Z,12.35
2024-03-06T18:22:38.681Z,12.35
2024-03-06T18:25:09.527Z,11.82
2024-03-06T18:27:37.007Z,12.73
2024-03-06T18:30:05.365Z,13.27
2024-03-06T18:32:33.027Z,11.82
2024-03-06T18:35:00.325Z,12.57
2024-03-06T18:37:27.602Z,12.60
2024-03-06T18:39:54.755Z,12.43
2024-03-06T18:42:22.583Z,11.95
2024-03-06T18:44:50.602Z,14.30
2024-03-06T18:47:21.054Z,13.63
2024-03-06T18:49:48.276Z,12.75
2024-03-06T18:52:15.557Z,13.30
2024-03-06T18:54:43.028Z,13.18
2024-03-06T18:57:10.243Z,12.88
2024-03-06T18:59:39.081Z,13.75
2024-03-06T19:02:09.238Z,13.77
2024-03-06T19:04:38.304Z,13.68
2024-03-06T19:07:06.052Z,12.75
2024-03-06T19:09:33.152Z,12.25
2024-03-06T19:12:00.888Z,13.73
2024-03-06T19:14:28.722Z,12.45
2024-03-06T19:16:55.837Z,12.82
2024-03-06T19:19:23.773Z,13.02
2024-03-06T19:21:53.225Z,12.75
2024-03-06T19:24:21.746Z,13.25
2024-03-06T19:26:51.399Z,12.52
2024-03-06T19:29:19.696Z,13.10
2024-03-06T19:31:47.579Z,12.10
2024-03-06T19:34:17.637Z,11.20
2024-03-06T19:36:45.162Z,11.40
2024-03-06T19:39:12.249Z,11.13
2024-03-06T19:41:40.740Z,11.32
2024-03-06T19:44:07.960Z,11.73
2024-03-06T19:46:35.325Z,12.60
2024-03-06T19:49:02.445Z,12.15
2024-03-06T19:51:32.250Z,12.05
2024-03-06T19:53:59.517Z,11.77
2024-03-06T19:56:26.714Z,12.45
2024-03-06T19:58:54.216Z,13.20
2024-03-06T20:01:21.953Z,13.73
2024-03-06T20:03:49.113Z,13.27
2024-03-06T20:06:16.844Z,12.30
2024-03-06T20:08:44.046Z,11.35
2024-03-06T20:11:11.761Z,11.35
2024-03-06T20:13:39.083Z,11.98
2024-03-06T20:16:07.712Z,11.27
2024-03-06T20:18:36.484Z,10.70
2024-03-06T20:21:04.133Z,10.75
2024-03-06T20:23:31.181Z,10.55
2024-03-06T20:25:58.661Z,10.10
2024-03-06T20:28:26.194Z,10.77
2024-03-06T20:30:53.864Z,10.52
2024-03-06T20:33:21.317Z,10.40
2024-03-06T20:35:51.420Z,12.77
2024-03-06T20:38:19.988Z,10.15
2024-03-06T20:40:50.201Z,10.10
2024-03-06T20:43:17.394Z,9.60
2024-03-06T20:45:45.304Z,9.43
2024-03-06T20:48:13.500Z,9.70
2024-03-06T20:50:41.764Z,9.95
2024-03-06T20:53:09.059Z,9.70
2024-03-06T20:55:36.397Z,9.00
2024-03-06T20:58:03.578Z,8.38
2024-03-06T21:00:33.540Z,8.35
2024-03-06T21:03:01.183Z,8.07
2024-03-06T21:05:28.364Z,7.90
2024-03-06T21:07:55.588Z,8.02
2024-03-06T21:10:23.201Z,6.53
2024-03-06T21:12:51.621Z,7.38
2024-03-06T21:15:19.187Z,7.25
2024-03-06T21:17:46.517Z,7.45
2024-03-06T21:20:14.190Z,7.85
2024-03-06T21:22:42.910Z,8.05
2024-03-06T21:25:13.064Z,8.00
2024-03-06T21:27:41.028Z,7.93
2024-03-06T21:30:09.594Z,8.40
2024-03-06T21:32:37.855Z,8.18
2024-03-06T21:35:05.671Z,8.35
2024-03-06T21:37:33.929Z,7.95
2024-03-06T21:40:04.085Z,7.00
2024-03-06T21:42:32.230Z,6.95
2024-03-06T21:44:59.469Z,7.15
2024-03-06T21:47:26.657Z,7.82
2024-03-06T21:49:53.893Z,7.50
2024-03-06T21:52:20.979Z,6.65
2024-03-06T21:54:48.098Z,7.28
2024-03-06T21:57:16.878Z,7.88
2024-03-06T21:59:44.281Z,7.20
2024-03-06T22:02:14.215Z,7.22
2024-03-06T22:04:41.507Z,7.22
2024-03-06T22:07:08.672Z,7.15
2024-03-06T22:09:38.557Z,6.95
2024-03-06T22:12:09.437Z,6.65
2024-03-06T22:14:36.714Z,7.28
2024-03-06T22:17:03.891Z,7.32
2024-03-06T22:19:31.452Z,6.75
2024-03-06T22:21:58.831Z,7.13
2024-03-06T22:24:26.355Z,7.10
2024-03-06T22:26:54.624Z,7.15
2024-03-06T22:29:21.839Z,7.20
2024-03-06T22:31:51.847Z,7.05
2024-03-06T22:34:19.032Z,6.50
2024-03-06T22:36:46.117Z,6.80
2024-03-06T22:39:13.337Z,6.55
2024-03-06T22:41:40.761Z,7.43
2024-03-06T22:44:08.001Z,7.25
2024-03-06T22:46:47.332Z,7.07
2024-03-06T22:49:18.796Z,6.85
2024-03-06T22:51:46.349Z,7.10
2024-03-06T22:54:13.631Z,7.05
2024-03-06T22:56:41.155Z,7.20
2024-03-06T22:59:11.104Z,6.55
2024-03-06T23:01:41.399Z,6.40
2024-03-06T23:04:08.847Z,6.60
2024-03-06T23:06:36.671Z,6.80
2024-03-06T23:09:04.967Z,7.03
2024-03-06T23:11:33.058Z,6.85
2024-03-06T23:14:00.374Z,6.50
2024-03-06T23:16:29.152Z,7.20
2024-03-06T23:18:59.074Z,7.32
2024-03-06T23:21:27.858Z,6.75
2024-03-06T23:23:55.123Z,7.05
2024-03-06T23:26:22.557Z,6.82
2024-03-06T23:28:49.978Z,6.53
2024-03-06T23:31:17.556Z,6.95
2024-03-06T23:33:45.371Z,7.18
2024-03-06T23:36:15.304Z,7.07
2024-03-06T23:38:42.610Z,7.13
2024-03-06T23:41:10.993Z,6.95
2024-03-06T23:43:38.196Z,7.50
2024-03-06T23:46:08.564Z,7.03
2024-03-06T23:48:37.734Z,7.47
2024-03-06T23:51:05.430Z,7.00
2024-03-06T23:53:33.293Z,7.47
2024-03-06T23:56:00.408Z,6.82
2024-03-06T23:58:27.801Z,7.72
